Time,TemperatureF,DewpointF,PressureIn,WindDirection,WindDirectionDegrees,WindSpeedMPH,WindSpeedGustMPH,Humidity,HourlyPrecipIn,Conditions,Clouds,dailyrainin,SoftwareType,DateUTC
2013-06-17 00:02:00,63.0,62.0,30.02,SSW,203,2.0,10.0,97,0.00,,,0.11,,2013-06-17 04:02:00,
2013-06-17 00:12:00,63.0,62.0,30.02,SSW,203,2.0,10.0,97,0.00,,,0.11,,2013-06-17 04:12:00,
2013-06-17 00:23:00,63.0,62.0,30.02,North,355,2.0,11.0,97,0.00,,,0.11,,2013-06-17 04:23:00,
2013-06-17 00:34:00,63.0,62.0,30.02,North,355,2.0,11.0,97,0.00,,,0.11,,2013-06-17 04:34:00,
2013-06-17 00:43:00,63.0,62.0,30.01,NNW,347,0.0,11.0,97,0.00,,,0.11,,2013-06-17 04:43:00,
2013-06-17 00:53:00,63.0,62.0,30.01,NW,314,2.0,9.0,98,0.00,,,0.11,,2013-06-17 04:53:00,
2013-06-17 01:02:00,63.0,62.0,30.01,NW,314,2.0,9.0,98,0.00,,,0.11,,2013-06-17 05:02:00,
2013-06-17 01:12:00,63.0,62.0,30.01,NW,314,2.0,9.0,98,0.00,,,0.11,,2013-06-17 05:12:00,
2013-06-17 01:22:00,63.0,62.0,30.01,NW,313,4.0,6.0,98,0.00,,,0.11,,2013-06-17 05:22:00,
2013-06-17 01:33:00,63.0,62.0,30.01,NW,313,4.0,6.0,98,0.00,,,0.11,,2013-06-17 05:33:00,
2013-06-17 01:44:00,63.0,62.0,30.01,NW,304,2.0,6.0,98,0.00,,,0.11,,2013-06-17 05:44:00,
2013-06-17 01:53:00,63.0,62.0,30.01,NW,304,2.0,6.0,98,0.00,,,0.11,,2013-06-17 05:53:00,
2013-06-17 02:02:00,63.0,62.0,30.01,ENE,67,0.0,7.0,98,0.00,,,0.11,,2013-06-17 06:02:00,
2013-06-17 02:12:00,63.0,62.0,30.01,SW,231,6.0,7.0,98,0.00,,,0.11,,2013-06-17 06:12:00,
2013-06-17 02:22:00,63.0,62.0,30.01,SW,231,6.0,7.0,98,0.00,,,0.11,,2013-06-17 06:22:00,
2013-06-17 02:33:00,63.0,62.0,30.01,WSW,240,6.0,8.0,98,0.00,,,0.11,,2013-06-17 06:33:00,
2013-06-17 02:43:00,63.0,62.0,30.01,West,281,2.0,7.0,98,0.00,,,0.11,,2013-06-17 06:43:00,
2013-06-17 02:53:00,63.0,62.0,30.01,West,281,2.0,7.0,98,0.00,,,0.11,,2013-06-17 06:53:00,
2013-06-17 03:02:00,63.0,62.0,30.01,West,266,0.0,9.0,98,0.00,,,0.11,,2013-06-17 07:02:00,
2013-06-17 03:12:00,63.0,62.0,30.01,West,266,0.0,9.0,98,0.00,,,0.11,,2013-06-17 07:12:00,
2013-06-17 03:22:00,63.0,63.0,30.01,WSW,255,4.0,12.0,99,0.00,,,0.11,,2013-06-17 07:22:00,
2013-06-17 03:33:00,63.0,63.0,30.01,WSW,255,4.0,12.0,99,0.00,,,0.11,,2013-06-17 07:33:00,
2013-06-17 03:43:00,63.0,63.0,30.01,SW,227,4.0,12.0,99,0.00,,,0.11,,2013-06-17 07:43:00,
2013-06-17 03:53:00,63.0,63.0,30.01,SW,227,4.0,12.0,99,0.00,,,0.11,,2013-06-17 07:53:00,
2013-06-17 04:02:00,63.0,63.0,30.00,WSW,255,0.0,9.0,100,0.00,,,0.11,,2013-06-17 08:02:00,
2013-06-17 04:12:00,63.0,63.0,30.00,North,355,4.0,12.0,100,0.00,,,0.11,,2013-06-17 08:12:00,
2013-06-17 04:22:00,63.0,63.0,30.00,NW,318,3.0,8.0,100,0.02,,,0.13,,2013-06-17 08:22:00,
2013-06-17 04:34:00,63.0,63.0,30.00,NW,320,4.0,5.0,100,0.02,,,0.13,,2013-06-17 08:34:00,
2013-06-17 04:43:00,63.0,63.0,30.00,NW,320,4.0,5.0,100,0.02,,,0.13,,2013-06-17 08:43:00,
2013-06-17 04:53:00,63.0,63.0,30.00,NW,320,4.0,5.0,100,0.02,,,0.13,,2013-06-17 08:53:00,
2013-06-17 05:02:00,63.0,63.0,30.00,NNW,337,5.0,9.0,100,0.02,,,0.13,,2013-06-17 09:02:00,
2013-06-17 05:12:00,63.0,63.0,30.00,NNW,337,5.0,9.0,100,0.02,,,0.13,,2013-06-17 09:12:00,
2013-06-17 05:22:00,63.0,63.0,30.01,NW,323,2.0,10.0,100,0.00,,,0.13,,2013-06-17 09:22:00,
2013-06-17 05:34:00,63.0,63.0,30.01,NW,311,2.0,10.0,100,0.00,,,0.13,,2013-06-17 09:34:00,
2013-06-17 05:44:00,63.0,63.0,30.01,West,281,0.0,10.0,100,0.00,,,0.13,,2013-06-17 09:44:00,
2013-06-17 05:53:00,63.0,63.0,30.01,NNW,338,0.0,9.0,100,0.00,,,0.13,,2013-06-17 09:53:00,
2013-06-17 06:02:00,63.0,63.0,30.01,North,5,4.0,14.0,100,0.00,,,0.13,,2013-06-17 10:02:00,
2013-06-17 06:12:00,63.0,63.0,30.01,North,5,4.0,14.0,100,0.00,,,0.13,,2013-06-17 10:12:00,
2013-06-17 06:22:00,63.0,63.0,30.01,NNW,328,2.0,9.0,100,0.00,,,0.13,,2013-06-17 10:22:00,
2013-06-17 06:33:00,63.0,63.0,30.01,NNW,329,3.0,10.0,100,0.00,,,0.12,,2013-06-17 10:33:00,
2013-06-17 06:43:00,63.0,63.0,30.01,WNW,284,2.0,9.0,100,0.00,,,0.11,,2013-06-17 10:43:00,
2013-06-17 06:54:00,63.0,63.0,30.01,WNW,284,2.0,9.0,100,0.00,,,0.11,,2013-06-17 10:54:00,
2013-06-17 07:02:00,63.0,63.0,30.01,West,270,0.0,9.0,100,0.00,,,0.11,,2013-06-17 11:02:00,
2013-06-17 07:12:00,63.0,63.0,30.01,SSW,202,1.0,9.0,100,0.00,,,0.11,,2013-06-17 11:12:00,
2013-06-17 07:23:00,63.0,63.0,30.02,West,278,3.0,10.0,100,0.00,,,0.11,,2013-06-17 11:23:00,
2013-06-17 07:33:00,63.0,63.0,30.02,West,278,3.0,10.0,100,0.00,,,0.11,,2013-06-17 11:33:00,
2013-06-17 07:43:00,63.0,63.0,30.02,NW,309,6.0,9.0,100,0.00,,,0.11,,2013-06-17 11:43:00,
2013-06-17 07:53:00,63.0,63.0,30.02,NW,309,6.0,9.0,100,0.00,,,0.11,,2013-06-17 11:53:00,
2013-06-17 08:02:00,63.0,63.0,30.03,NW,318,5.0,6.0,100,0.01,,,0.12,,2013-06-17 12:02:00,
2013-06-17 08:12:00,63.0,63.0,30.03,NW,318,5.0,6.0,100,0.01,,,0.12,,2013-06-17 12:12:00,
2013-06-17 08:23:00,63.0,63.0,30.03,West,275,1.0,9.0,100,0.01,,,0.12,,2013-06-17 12:23:00,
2013-06-17 08:33:00,63.0,63.0,30.03,West,275,1.0,9.0,100,0.01,,,0.12,,2013-06-17 12:33:00,
2013-06-17 08:43:00,63.0,63.0,30.04,NW,306,0.0,6.0,100,0.01,,,0.12,,2013-06-17 12:43:00,
2013-06-17 08:53:00,63.0,63.0,30.04,NW,306,0.0,6.0,100,0.01,,,0.12,,2013-06-17 12:53:00,
2013-06-17 09:02:00,63.0,63.0,30.04,North,355,5.0,8.0,100,0.00,,,0.12,,2013-06-17 13:02:00,
2013-06-17 09:12:00,63.0,63.0,30.04,North,355,5.0,8.0,100,0.00,,,0.12,,2013-06-17 13:12:00,
2013-06-17 09:22:00,63.0,63.0,30.03,NW,317,8.0,12.0,100,0.00,,,0.12,,2013-06-17 13:22:00,
2013-06-17 09:32:00,63.0,63.0,30.03,NW,317,8.0,12.0,100,0.00,,,0.12,,2013-06-17 13:32:00,
2013-06-17 09:43:00,63.0,63.0,30.03,West,265,2.0,12.0,100,0.03,,,0.15,,2013-06-17 13:43:00,
2013-06-17 09:53:00,63.0,63.0,30.03,West,265,2.0,12.0,100,0.03,,,0.15,,2013-06-17 13:53:00,
2013-06-17 10:02:00,63.0,63.0,30.03,West,279,1.0,12.0,100,0.04,,,0.16,,2013-06-17 14:02:00,
2013-06-17 10:12:00,63.0,63.0,30.03,West,279,1.0,12.0,100,0.04,,,0.16,,2013-06-17 14:12:00,
2013-06-17 10:22:00,63.0,63.0,30.03,West,279,1.0,12.0,100,0.04,,,0.16,,2013-06-17 14:22:00,
2013-06-17 10:34:00,64.0,64.0,30.02,WSW,247,0.0,9.0,100,0.04,,,0.15,,2013-06-17 14:34:00,
2013-06-17 10:44:00,65.0,65.0,30.02,SW,221,5.0,7.0,100,0.01,,,0.15,,2013-06-17 14:44:00,
2013-06-17 10:54:00,65.0,65.0,30.02,SW,221,5.0,7.0,100,0.01,,,0.15,,2013-06-17 14:54:00,
2013-06-17 11:02:00,66.0,66.0,30.02,SW,217,0.0,7.0,100,0.00,,,0.15,,2013-06-17 15:02:00,
2013-06-17 11:12:00,66.0,66.0,30.02,SW,217,0.0,7.0,100,0.00,,,0.15,,2013-06-17 15:12:00,
2013-06-17 11:22:00,66.0,66.0,30.02,SW,217,0.0,7.0,100,0.00,,,0.15,,2013-06-17 15:22:00,
2013-06-17 11:33:00,66.0,66.0,30.02,SW,217,0.0,7.0,100,0.00,,,0.15,,2013-06-17 15:33:00,
2013-06-17 11:43:00,68.0,66.0,30.04,WNW,303,4.0,10.0,92,0.00,,,0.15,,2013-06-17 15:43:00,
2013-06-17 11:53:00,68.0,66.0,30.04,WNW,303,4.0,10.0,92,0.00,,,0.15,,2013-06-17 15:53:00,
2013-06-17 12:02:00,70.0,66.0,30.04,NW,325,5.0,12.0,87,0.00,,,0.15,,2013-06-17 16:02:00,
2013-06-17 12:12:00,71.0,66.0,30.04,WSW,240,9.0,14.0,85,0.00,,,0.15,,2013-06-17 16:12:00,
2013-06-17 12:22:00,71.0,66.0,30.05,WSW,238,2.0,11.0,84,0.00,,,0.15,,2013-06-17 16:22:00,
2013-06-17 12:33:00,71.0,66.0,30.05,WSW,238,2.0,11.0,84,0.00,,,0.15,,2013-06-17 16:33:00,
2013-06-17 12:43:00,71.0,66.0,30.04,North,355,0.0,9.0,85,0.00,,,0.15,,2013-06-17 16:43:00,
2013-06-17 12:53:00,71.0,66.0,30.04,North,355,0.0,9.0,85,0.00,,,0.15,,2013-06-17 16:53:00,
2013-06-17 13:02:00,71.0,66.0,30.04,North,355,0.0,9.0,85,0.00,,,0.15,,2013-06-17 17:02:00,
2013-06-17 13:12:00,71.0,66.0,30.04,North,355,0.0,9.0,85,0.00,,,0.15,,2013-06-17 17:12:00,